Startpagina
METAR-TAF:

METAR-TAF

Vliegvelden :

Flughafen Saarbrücken

Saarbrücken, Duitsland

breedte: 49-13N, lengte: 007-07E, hoogte: 322 m

Actueel weer

Dit bericht is 34 minuten geleden gemaakt, om 06:20 UTC
Wind 2 kt uit variabele richting
Temperatuur 9°C
Vochtigheid 81%
Druk 1023 hPa
Zicht 10 km of meer
Weinig wolken op 2900 ft
Gebroken wolken op 28000 ft

METAR: EDDR 220620Z VRB02KT 9999 FEW029 BKN280 09/06 Q1023 NOSIG

Tijdstip: 08:54 (06:54 UTC)

Verwachting

Dit bericht is 1 uur en het 54 minuten geleden gemaakt, om 05:00 UTC
Verwachting geldig van 22 om 06 UTC tot 23 om 06 UTC
Wind 7 kt uit het westzuidwesten
Zicht 10 km of meer
geen wolken onder 1500 m en geen cumulonimbus
Tijdelijke
van 22 om 12 UTC tot 22 om 16 UTC
Wind 12 kt uit het westzuidwesten
Tijdelijke
van 23 om 00 UTC tot 23 om 06 UTC
regen

TAF: EDDR 220500Z 2206/2306 25007KT CAVOK TEMPO 2212/2216 25012KT TEMPO 2300/2306 RA

Waarnemingen en weersverwachtingen van meer dan 4000 vliegvelden (METAR en TAF).

De beschikbare stations zijn de gele en rode punten op de kaart.

Ga met uw muis naar het station om de naam te zien.

Klik dan om waarnemingen en weersverwachtingen te zien.

kaart wijzigen: klik op de groene knoppen met een zwart kruis om in te zoomen, op de groene knop met een streepje om uit te zoomen of op de groene pijlen voor aangrenzende kaarten.


METAR-TAF: